Time;durP1;ratioP1;P1;durP2;ratioP2;P2;SDS_P1;SDS_P2;PMS_P1;PMS_P2;Temp;Humidity;BMP_temperature;BMP_pressure;BME280_temperature;BME280_humidity;BME280_pressure;Samples;Min_cycle;Max_cycle;Signal;HPM_P1;HPM_P2
2022/05/07 00:01:31;;;;;;;3.78;3.47;;;20.10;64.50;;;;;;5012188;28;20189;-72
2022/05/07 00:03:57;;;;;;;4.43;4.03;;;20.00;64.40;;;;;;5011806;28;20211;-72
2022/05/07 00:06:23;;;;;;;4.03;3.72;;;20.00;64.30;;;;;;5011902;28;20188;-72
2022/05/07 00:08:49;;;;;;;3.88;3.58;;;20.00;64.30;;;;;;5011918;28;20565;-72
2022/05/07 00:11:20;;;;;;;4.03;3.72;;;20.00;64.30;;;;;;5011746;28;20180;-72
2022/05/07 00:13:50;;;;;;;4.22;3.83;;;20.00;64.30;;;;;;5028134;28;20227;-72
2022/05/07 00:19:01;;;;;;;4.93;4.18;;;20.00;64.20;;;;;;5012970;28;20179;-72
2022/05/07 00:21:27;;;;;;;5.13;4.72;;;20.00;64.10;;;;;;5011606;28;20188;-72
2022/05/07 00:23:53;;;;;;;4.80;4.35;;;20.10;64.20;;;;;;5011680;28;20215;-72
2022/05/07 00:26:19;;;;;;;5.15;4.63;;;20.00;64.10;;;;;;5011640;28;20184;-72
2022/05/07 00:28:45;;;;;;;5.18;4.38;;;20.10;64.20;;;;;;4995282;28;20199;-72
2022/05/07 00:31:12;;;;;;;4.18;3.78;;;20.00;64.10;;;;;;4995148;28;20199;-72
2022/05/07 00:33:37;;;;;;;4.28;3.97;;;20.10;64.20;;;;;;5011404;28;20271;-72
2022/05/07 00:36:04;;;;;;;3.90;3.60;;;20.00;64.00;;;;;;5011797;28;20204;-72
2022/05/07 00:38:30;;;;;;;4.00;3.60;;;20.00;63.90;;;;;;5028050;28;20241;-72
2022/05/07 00:40:55;;;;;;;3.85;3.47;;;20.00;64.00;;;;;;5011361;28;20215;-72
2022/05/07 00:43:21;;;;;;;3.83;3.50;;;20.00;64.00;;;;;;4994654;28;20568;-72
2022/05/07 00:45:49;;;;;;;3.92;3.60;;;20.00;63.90;;;;;;5011739;28;20530;-72
2022/05/07 00:48:16;;;;;;;3.45;3.20;;;20.00;63.90;;;;;;5012644;28;20211;-72
2022/05/07 00:53:30;;;;;;;3.72;3.42;;;20.10;64.00;;;;;;5027662;28;20361;-72
2022/05/07 00:55:56;;;;;;;4.55;4.15;;;20.00;63.90;;;;;;5027779;28;20237;-72
2022/05/07 00:58:22;;;;;;;4.65;4.25;;;20.00;63.90;;;;;;5011386;28;20176;-72
2022/05/07 01:00:52;;;;;;;4.68;4.28;;;20.00;63.90;;;;;;5027831;28;20262;-72
2022/05/07 01:03:19;;;;;;;5.18;4.78;;;20.00;63.90;;;;;;5011436;28;20250;-72
2022/05/07 01:05:45;;;;;;;4.80;4.40;;;20.00;63.80;;;;;;5011193;28;20237;-72
2022/05/07 01:08:12;;;;;;;4.82;4.43;;;20.00;63.80;;;;;;5013880;28;20183;-72
2022/05/07 01:10:41;;;;;;;4.65;4.35;;;20.00;63.80;;;;;;5015075;28;20188;-72
2022/05/07 01:13:07;;;;;;;5.22;4.75;;;20.00;63.80;;;;;;4999071;28;20255;-72
2022/05/07 01:15:46;;;;;;;3.92;3.63;;;20.00;63.70;;;;;;5015101;28;20191;-72
2022/05/07 01:18:15;;;;;;;3.90;3.60;;;20.00;63.80;;;;;;5015484;28;20176;-72
2022/05/07 01:20:42;;;;;;;3.80;3.50;;;20.00;63.70;;;;;;4998367;28;20183;-72
2022/05/07 01:23:09;;;;;;;3.90;3.60;;;20.00;63.80;;;;;;5014793;28;20207;-71
2022/05/07 01:25:35;;;;;;;3.67;3.38;;;20.00;63.70;;;;;;5031407;28;20188;-72
2022/05/07 01:28:03;;;;;;;3.80;3.50;;;20.00;63.70;;;;;;5031294;28;20194;-72
2022/05/07 01:30:30;;;;;;;3.90;3.50;;;20.00;63.70;;;;;;5031024;28;20239;-71
2022/05/07 01:32:56;;;;;;;3.63;3.33;;;20.00;63.70;;;;;;5030919;28;20681;-72
2022/05/07 01:35:22;;;;;;;3.85;3.55;;;20.00;63.70;;;;;;4998380;28;20208;-72
2022/05/07 01:37:52;;;;;;;4.75;3.95;;;20.00;63.60;;;;;;5015436;28;20211;-72
2022/05/07 01:40:19;;;;;;;5.03;4.63;;;20.00;63.60;;;;;;5031417;28;20184;-72
2022/05/07 01:42:48;;;;;;;4.75;4.25;;;20.00;63.60;;;;;;4998693;28;20266;-72
2022/05/07 01:45:14;;;;;;;4.90;4.50;;;20.00;63.50;;;;;;5031080;28;20177;-72
2022/05/07 01:50:29;;;;;;;4.65;4.25;;;20.00;63.60;;;;;;5031109;28;20179;-71
2022/05/07 01:52:54;;;;;;;4.10;3.70;;;20.00;63.60;;;;;;5022564;28;20220;-72
2022/05/07 01:55:21;;;;;;;3.78;3.47;;;20.00;63.50;;;;;;5014370;28;20318;-72
2022/05/07 01:57:50;;;;;;;3.85;3.55;;;20.00;63.50;;;;;;5030684;28;20238;-72
2022/05/07 02:00:17;;;;;;;3.85;3.55;;;20.00;63.50;;;;;;5014237;28;20680;-72
2022/05/07 02:02:43;;;;;;;3.88;3.58;;;20.00;63.50;;;;;;5013838;28;20204;-72
2022/05/07 02:05:16;;;;;;;3.40;3.20;;;20.00;63.50;;;;;;5031010;28;20188;-72
2022/05/07 02:07:42;;;;;;;3.47;3.17;;;20.00;63.40;;;;;;5014422;28;20291;-72
2022/05/07 02:10:09;;;;;;;3.58;3.28;;;20.00;63.40;;;;;;5014160;28;20172;-72
2022/05/07 02:12:35;;;;;;;3.42;3.13;;;20.00;63.40;;;;;;5030243;28;20290;-72
2022/05/07 02:15:01;;;;;;;3.80;3.50;;;19.90;63.30;;;;;;5012290;28;20184;-72
2022/05/07 02:17:28;;;;;;;4.25;3.85;;;20.00;63.30;;;;;;5028818;28;20206;-72
2022/05/07 02:19:54;;;;;;;3.78;3.47;;;20.00;63.40;;;;;;5013573;28;20659;-72
2022/05/07 02:22:20;;;;;;;4.68;4.28;;;20.00;63.30;;;;;;5008214;28;20258;-72
2022/05/07 02:24:46;;;;;;;4.20;3.55;;;20.00;63.30;;;;;;5013785;28;20204;-72
2022/05/07 02:27:19;;;;;;;4.40;4.00;;;20.00;63.30;;;;;;5013966;28;20199;-72
2022/05/07 02:29:45;;;;;;;5.43;4.38;;;19.90;63.10;;;;;;5030488;28;20188;-72
2022/05/07 02:32:13;;;;;;;4.10;3.72;;;19.90;63.20;;;;;;5029828;28;20200;-72
2022/05/07 02:34:42;;;;;;;4.55;4.15;;;19.90;63.10;;;;;;5014129;28;20215;-72
2022/05/07 02:37:16;;;;;;;3.58;3.28;;;20.00;63.20;;;;;;5014944;28;20180;-72
2022/05/07 02:39:48;;;;;;;3.58;3.33;;;19.90;63.00;;;;;;5013509;28;20188;-72
2022/05/07 02:45:04;;;;;;;3.42;3.15;;;19.90;63.00;;;;;;5014537;28;20184;-72
2022/05/07 02:47:30;;;;;;;3.35;3.08;;;19.90;63.10;;;;;;5013614;28;20235;-72
2022/05/07 02:49:56;;;;;;;3.33;3.10;;;19.90;63.00;;;;;;5013616;28;20176;-72
2022/05/07 02:52:22;;;;;;;3.60;3.30;;;19.90;63.00;;;;;;5012850;28;20211;-72
2022/05/07 02:54:48;;;;;;;3.85;3.38;;;19.90;62.90;;;;;;5012974;28;20223;-72
2022/05/07 02:57:13;;;;;;;3.80;3.50;;;19.90;63.00;;;;;;5029862;28;20219;-72
2022/05/07 02:59:40;;;;;;;3.80;3.50;;;19.90;62.90;;;;;;5029446;28;20188;-72
2022/05/07 03:02:07;;;;;;;4.18;3.78;;;19.90;62.90;;;;;;5013078;28;20200;-72
2022/05/07 03:04:33;;;;;;;3.70;3.50;;;20.00;63.00;;;;;;5013360;28;20184;-72
2022/05/07 03:07:00;;;;;;;4.65;4.25;;;19.90;62.90;;;;;;5013203;28;20234;-72
2022/05/07 03:09:26;;;;;;;4.10;3.75;;;19.90;62.80;;;;;;5029441;28;20241;-71
2022/05/07 03:11:51;;;;;;;3.80;3.50;;;19.90;62.90;;;;;;5029154;28;20640;-71
2022/05/07 03:14:22;;;;;;;4.50;3.75;;;19.90;62.80;;;;;;5013152;28;20204;-72
2022/05/07 03:16:48;;;;;;;3.85;3.53;;;19.90;62.80;;;;;;5029595;28;20271;-72
2022/05/07 03:19:15;;;;;;;3.67;3.38;;;19.90;62.80;;;;;;5029569;28;20180;-72
2022/05/07 03:21:43;;;;;;;3.10;2.90;;;19.90;62.80;;;;;;5012779;28;20184;-72
2022/05/07 03:24:10;;;;;;;3.30;3.10;;;19.90;62.80;;;;;;5012544;28;20200;-72
2022/05/07 03:26:38;;;;;;;2.85;2.65;;;19.90;62.80;;;;;;5029079;28;20273;-72
2022/05/07 03:29:04;;;;;;;3.20;3.00;;;19.90;62.70;;;;;;5029350;28;20210;-72
2022/05/07 03:31:30;;;;;;;2.83;2.63;;;19.90;62.70;;;;;;5028690;28;20188;-72
2022/05/07 03:33:56;;;;;;;3.05;2.83;;;19.90;62.80;;;;;;5029169;28;20219;-73
2022/05/07 03:36:28;;;;;;;3.30;3.05;;;19.90;62.80;;;;;;5013209;28;20184;-72
2022/05/07 03:38:54;;;;;;;3.30;3.00;;;19.90;62.70;;;;;;5012585;28;20181;-71
2022/05/07 03:41:26;;;;;;;3.10;2.90;;;19.90;62.70;;;;;;5012302;28;20184;-72
2022/05/07 03:43:53;;;;;;;3.03;2.83;;;19.90;62.70;;;;;;5028823;28;20223;-72
2022/05/07 03:46:19;;;;;;;3.22;3.03;;;19.90;62.70;;;;;;5012407;28;20180;-72
2022/05/07 03:48:51;;;;;;;3.75;3.45;;;19.90;62.70;;;;;;5012323;28;20175;-72
2022/05/07 03:51:17;;;;;;;4.15;3.70;;;19.90;62.60;;;;;;4995914;28;20207;-72
2022/05/07 03:53:43;;;;;;;4.28;3.95;;;19.90;62.60;;;;;;5028611;28;20208;-72
2022/05/07 03:56:15;;;;;;;3.53;3.22;;;19.90;63.40;;;;;;5012263;28;20234;-72
2022/05/07 03:58:41;;;;;;;3.38;3.10;;;19.90;62.60;;;;;;5028878;28;20180;-72
2022/05/07 04:01:08;;;;;;;3.63;3.40;;;19.90;62.50;;;;;;5011986;28;20195;-71
2022/05/07 04:03:36;;;;;;;3.60;3.30;;;19.90;62.70;;;;;;5011935;28;20196;-72
2022/05/07 04:06:02;;;;;;;3.25;3.05;;;19.90;62.50;;;;;;5013213;28;20207;-72
2022/05/07 04:08:28;;;;;;;3.42;3.22;;;19.90;62.50;;;;;;5012195;28;20223;-72
2022/05/07 04:10:56;;;;;;;3.38;3.13;;;19.90;62.60;;;;;;4995790;28;20657;-72
2022/05/07 04:13:25;;;;;;;3.15;2.92;;;19.80;62.40;;;;;;5011782;28;20243;-72
2022/05/07 04:15:59;;;;;;;3.00;2.80;;;19.90;62.50;;;;;;5011808;28;20242;-72
2022/05/07 04:18:30;;;;;;;3.10;2.90;;;19.90;62.50;;;;;;5027481;28;20263;-72
2022/05/07 04:20:57;;;;;;;3.20;3.00;;;19.90;62.50;;;;;;5027730;28;20188;-72
2022/05/07 04:23:25;;;;;;;2.88;2.67;;;19.90;62.50;;;;;;5019132;28;20211;-72
2022/05/07 04:25:53;;;;;;;3.00;2.80;;;19.80;62.40;;;;;;5011956;28;20194;-72
2022/05/07 04:28:21;;;;;;;3.55;3.25;;;19.90;62.50;;;;;;5011583;28;20180;-72
2022/05/07 04:30:49;;;;;;;3.60;3.38;;;19.90;62.50;;;;;;5011744;28;20227;-71
2022/05/07 04:33:20;;;;;;;4.00;3.70;;;19.90;62.40;;;;;;5011366;28;20223;-72
2022/05/07 04:35:48;;;;;;;3.80;3.50;;;19.90;62.40;;;;;;5011734;28;20184;-72
2022/05/07 04:38:16;;;;;;;4.65;4.25;;;19.90;62.40;;;;;;5011602;28;20211;-72
2022/05/07 04:40:42;;;;;;;4.40;4.00;;;19.90;62.50;;;;;;5011407;28;20169;-70
2022/05/07 04:43:11;;;;;;;4.88;4.47;;;19.90;62.30;;;;;;5011385;28;20257;-72
2022/05/07 04:45:37;;;;;;;4.53;4.13;;;19.90;62.30;;;;;;5011166;28;20215;-72
2022/05/07 04:48:11;;;;;;;3.28;3.08;;;19.90;62.40;;;;;;5011629;28;20180;-72
2022/05/07 04:50:37;;;;;;;3.17;2.88;;;19.90;62.20;;;;;;5011318;28;20250;-72
2022/05/07 04:53:28;;;;;;;2.72;2.53;;;19.80;62.20;;;;;;5021181;28;20224;-72
2022/05/07 04:56:00;;;;;;;2.88;2.67;;;19.80;62.30;;;;;;5011466;28;20187;-72
2022/05/07 04:58:26;;;;;;;3.45;2.90;;;19.80;62.20;;;;;;5011276;28;20176;-72
2022/05/07 05:00:52;;;;;;;3.03;2.83;;;19.90;63.10;;;;;;5027582;28;20296;-72
2022/05/07 05:03:21;;;;;;;3.25;3.05;;;19.80;62.20;;;;;;5011098;28;20586;-72
2022/05/07 05:06:07;;;;;;;3.88;3.58;;;19.80;62.20;;;;;;5011604;28;20203;-71
2022/05/07 05:08:51;;;;;;;3.85;3.55;;;19.80;62.20;;;;;;5011734;28;20261;-71
2022/05/07 05:11:17;;;;;;;3.67;3.38;;;19.80;62.10;;;;;;5011227;28;20207;-72
2022/05/07 05:13:44;;;;;;;3.55;3.25;;;19.80;62.10;;;;;;5011076;28;20212;-72
2022/05/07 05:16:10;;;;;;;3.58;3.28;;;19.80;62.10;;;;;;5011284;28;20678;-72
2022/05/07 05:18:45;;;;;;;3.95;3.28;;;19.80;62.10;;;;;;5011039;28;20172;-72
2022/05/07 05:21:16;;;;;;;2.70;2.50;;;19.80;62.20;;;;;;5010941;28;20190;-72
2022/05/07 05:23:55;;;;;;;3.40;2.90;;;19.80;62.20;;;;;;4996182;28;20199;-72
2022/05/07 05:26:21;;;;;;;3.03;2.83;;;19.80;62.20;;;;;;5010917;28;20669;-72
2022/05/07 05:28:52;;;;;;;3.20;2.92;;;19.80;62.20;;;;;;5011729;28;20183;-71
2022/05/07 05:31:19;;;;;;;3.80;3.45;;;19.80;62.20;;;;;;5011075;28;20271;-72
2022/05/07 05:33:50;;;;;;;4.38;3.97;;;19.80;62.10;;;;;;5010878;28;20220;-72
2022/05/07 05:36:30;;;;;;;5.90;5.32;;;19.80;62.20;;;;;;5010911;28;20230;-72
2022/05/07 05:38:55;;;;;;;6.93;6.22;;;19.80;62.10;;;;;;5027377;28;20275;-73
2022/05/07 05:41:25;;;;;;;6.90;6.20;;;19.80;62.10;;;;;;5011553;28;20184;-74
2022/05/07 05:43:52;;;;;;;5.95;5.40;;;19.80;62.20;;;;;;5027168;28;20310;-73
2022/05/07 05:46:18;;;;;;;7.35;6.10;;;19.90;62.30;;;;;;5010886;28;20583;-73
2022/05/07 05:48:46;;;;;;;8.02;6.22;;;19.80;62.20;;;;;;5010945;28;20188;-73
2022/05/07 05:51:12;;;;;;;8.18;4.18;;;19.90;62.40;;;;;;5010680;28;20191;-73
2022/05/07 05:53:42;;;;;;;5.38;3.58;;;19.90;62.50;;;;;;5012832;28;20220;-73
2022/05/07 05:56:10;;;;;;;4.43;3.63;;;19.90;62.50;;;;;;5014490;28;20191;-74
2022/05/07 05:58:42;;;;;;;3.78;3.25;;;19.90;62.50;;;;;;5014381;28;20176;-72
2022/05/07 06:01:09;;;;;;;4.00;3.60;;;19.90;62.30;;;;;;5016570;28;20183;-72
2022/05/07 06:03:45;;;;;;;3.85;3.40;;;19.90;62.40;;;;;;5015068;28;20210;-71
2022/05/07 06:06:15;;;;;;;5.88;4.13;;;19.80;62.40;;;;;;5023737;28;20184;-73
2022/05/07 06:08:42;;;;;;;6.65;4.15;;;19.80;62.40;;;;;;4997847;28;20187;-73
2022/05/07 06:11:08;;;;;;;4.13;3.72;;;19.80;62.40;;;;;;5013959;28;20210;-74
2022/05/07 06:13:34;;;;;;;5.07;4.57;;;19.80;62.30;;;;;;5030562;28;20212;-73
2022/05/07 06:16:01;;;;;;;6.32;4.65;;;19.80;62.30;;;;;;4998024;28;20187;-73
2022/05/07 06:18:27;;;;;;;6.00;4.63;;;19.80;62.30;;;;;;5014235;28;20188;-73
2022/05/07 06:21:01;;;;;;;8.45;7.10;;;19.80;62.10;;;;;;5013846;28;20173;-72
2022/05/07 06:23:30;;;;;;;7.60;6.60;;;19.80;62.10;;;;;;5013817;28;20208;-73
2022/05/07 06:28:41;;;;;;;4.90;4.40;;;19.80;62.00;;;;;;5010671;28;20180;-71
2022/05/07 06:31:10;;;;;;;5.18;4.68;;;19.90;62.10;;;;;;5010547;28;20211;-73
2022/05/07 06:33:38;;;;;;;4.65;4.22;;;19.80;62.00;;;;;;5026776;28;20213;-73
2022/05/07 06:36:08;;;;;;;5.50;4.80;;;19.90;62.10;;;;;;5010779;28;20181;-73
2022/05/07 06:38:38;;;;;;;6.05;4.57;;;19.90;62.00;;;;;;5009956;28;20279;-73
2022/05/07 06:41:07;;;;;;;4.90;4.50;;;19.90;62.00;;;;;;5002304;28;20184;-73
2022/05/07 06:43:42;;;;;;;4.82;4.40;;;19.90;61.80;;;;;;5030790;28;20260;-73
2022/05/07 06:46:10;;;;;;;5.45;4.32;;;19.90;61.80;;;;;;5029657;28;20184;-73
2022/05/07 06:48:58;;;;;;;6.90;5.80;;;19.90;61.80;;;;;;5012033;28;20626;-74
2022/05/07 06:52:04;;;;;;;5.90;5.30;;;19.90;61.80;;;;;;5001828;28;20269;-73
2022/05/07 06:54:29;;;;;;;5.22;4.72;;;19.90;61.80;;;;;;5015445;28;20215;-73
2022/05/07 06:56:55;;;;;;;5.95;5.32;;;19.90;61.80;;;;;;5013348;28;20194;-73
2022/05/07 06:59:21;;;;;;;5.28;4.78;;;19.90;61.80;;;;;;5013373;28;20286;-73
2022/05/07 07:01:47;;;;;;;6.63;5.35;;;19.90;61.80;;;;;;5014115;28;20176;-72
2022/05/07 07:04:13;;;;;;;6.03;5.00;;;19.90;61.80;;;;;;5029642;28;20192;-73
2022/05/07 07:06:39;;;;;;;6.57;5.82;;;19.90;61.80;;;;;;5029021;28;20195;-73
2022/05/07 07:09:05;;;;;;;5.43;4.90;;;19.90;61.70;;;;;;5013036;28;20578;-72
2022/05/07 07:11:31;;;;;;;7.60;5.60;;;20.00;61.80;;;;;;5013117;28;20177;-72
2022/05/07 07:13:57;;;;;;;5.95;5.20;;;19.90;61.70;;;;;;5013056;28;20216;-73
2022/05/07 07:16:23;;;;;;;7.05;5.38;;;19.90;61.70;;;;;;5012911;28;20176;-73
2022/05/07 07:18:50;;;;;;;7.28;5.30;;;20.00;61.70;;;;;;5013021;28;20227;-72
2022/05/07 07:21:16;;;;;;;6.57;4.97;;;20.00;61.70;;;;;;5029132;28;20719;-72
2022/05/07 07:23:42;;;;;;;6.22;5.30;;;20.00;61.70;;;;;;5012441;28;20270;-73
2022/05/07 07:26:07;;;;;;;6.30;5.38;;;20.00;61.70;;;;;;5029562;28;20227;-73
2022/05/07 07:28:33;;;;;;;6.45;5.45;;;20.00;61.60;;;;;;5013069;28;20196;-73
2022/05/07 07:30:59;;;;;;;5.30;4.80;;;20.00;61.60;;;;;;5012456;28;20218;-70
2022/05/07 07:33:25;;;;;;;5.85;5.25;;;20.00;61.50;;;;;;5013744;28;20212;-72
2022/05/07 07:35:50;;;;;;;5.97;5.38;;;20.00;61.40;;;;;;5012565;28;20180;-73
2022/05/07 07:38:16;;;;;;;5.97;5.38;;;20.00;61.60;;;;;;5029271;28;20235;-73
2022/05/07 07:40:43;;;;;;;5.47;4.85;;;20.00;61.70;;;;;;5028981;28;20183;-73
2022/05/07 07:43:10;;;;;;;5.28;4.60;;;20.00;61.30;;;;;;5012234;28;20215;-73
2022/05/07 07:48:21;;;;;;;5.85;5.22;;;20.10;61.50;;;;;;5025221;28;20172;-73
2022/05/07 07:50:50;;;;;;;7.00;5.13;;;20.10;61.40;;;;;;5022725;28;20582;-72
2022/05/07 07:53:16;;;;;;;5.82;4.82;;;20.10;61.60;;;;;;5028071;28;20255;-72
2022/05/07 07:55:42;;;;;;;5.57;4.68;;;20.10;61.40;;;;;;5011748;28;20188;-73
2022/05/07 07:58:10;;;;;;;5.72;4.78;;;20.10;61.40;;;;;;5011818;28;20610;-73
2022/05/07 08:00:37;;;;;;;6.40;4.85;;;20.10;61.10;;;;;;5010986;28;20184;-72
2022/05/07 08:03:12;;;;;;;6.40;5.20;;;20.10;61.20;;;;;;5025981;28;20216;-73
2022/05/07 08:05:40;;;;;;;5.47;4.97;;;20.10;61.30;;;;;;5009518;28;20192;-73
2022/05/07 08:13:40;;;;;;;6.22;4.90;;;20.10;61.40;;;;;;5010749;28;20297;-73
2022/05/07 08:16:09;;;;;;;6.35;4.85;;;20.10;61.60;;;;;;5009238;28;20263;-73
2022/05/07 08:18:37;;;;;;;5.25;4.75;;;20.20;61.70;;;;;;5025424;28;20188;-72
2022/05/07 08:21:05;;;;;;;5.25;4.63;;;20.10;61.40;;;;;;5009194;28;20184;-73
2022/05/07 08:23:31;;;;;;;5.32;4.78;;;20.10;61.40;;;;;;5010382;28;20235;-73
2022/05/07 08:25:58;;;;;;;5.78;4.65;;;20.10;61.40;;;;;;5016923;28;20196;-73
2022/05/07 08:28:24;;;;;;;6.72;4.38;;;20.10;61.90;;;;;;5009665;28;20267;-72
2022/05/07 08:30:53;;;;;;;5.03;4.22;;;20.20;61.40;;;;;;5009267;28;20199;-73
2022/05/07 08:33:20;;;;;;;4.85;4.32;;;20.10;61.30;;;;;;4992419;28;20255;-74
2022/05/07 08:35:46;;;;;;;5.15;4.03;;;20.20;61.50;;;;;;5010363;28;20705;-73
2022/05/07 08:38:14;;;;;;;4.13;3.72;;;20.20;61.60;;;;;;5025508;28;20177;-73
2022/05/07 08:40:41;;;;;;;4.45;4.05;;;20.20;61.10;;;;;;4993089;28;20176;-73
2022/05/07 08:43:08;;;;;;;6.28;4.07;;;20.20;61.10;;;;;;5008676;28;20315;-73
2022/05/07 08:45:35;;;;;;;5.90;4.13;;;20.20;61.10;;;;;;5010198;28;20192;-73
2022/05/07 08:48:02;;;;;;;4.07;3.67;;;20.20;61.10;;;;;;5008790;28;20644;-74
2022/05/07 08:50:28;;;;;;;5.40;4.53;;;20.20;61.10;;;;;;5008174;28;20650;-73
2022/05/07 08:52:54;;;;;;;5.70;4.32;;;20.20;61.10;;;;;;5007617;28;20258;-73
2022/05/07 08:55:21;;;;;;;6.20;3.90;;;20.20;61.10;;;;;;5010260;28;20668;-73
2022/05/07 08:57:52;;;;;;;4.53;4.13;;;20.20;61.10;;;;;;5023215;28;20184;-73
2022/05/07 09:00:22;;;;;;;5.50;3.88;;;20.20;61.80;;;;;;5022677;28;20187;-73
2022/05/07 09:02:55;;;;;;;4.03;3.63;;;20.20;60.60;;;;;;5008583;28;20204;-74
2022/05/07 09:05:37;;;;;;;4.07;3.67;;;20.20;61.10;;;;;;4993899;28;20589;-73
2022/05/07 09:08:06;;;;;;;4.40;3.97;;;20.20;61.10;;;;;;5011429;28;20168;-72
2022/05/07 09:10:37;;;;;;;5.20;3.90;;;20.20;60.70;;;;;;5011479;28;20557;-73
2022/05/07 09:13:17;;;;;;;4.20;3.78;;;20.20;61.10;;;;;;5010954;28;20227;-73
2022/05/07 09:15:56;;;;;;;4.80;4.00;;;20.20;61.10;;;;;;4995195;28;20283;-72
2022/05/07 09:18:24;;;;;;;5.45;3.70;;;20.20;60.50;;;;;;5011360;28;20191;-72
2022/05/07 09:21:26;;;;;;;4.68;4.10;;;20.20;61.10;;;;;;5011100;28;20655;-72
2022/05/07 09:23:58;;;;;;;4.35;3.78;;;20.30;61.20;;;;;;5011074;28;20587;-72
2022/05/07 09:26:37;;;;;;;5.15;3.83;;;20.30;61.10;;;;;;5011394;28;20188;-72
2022/05/07 09:29:08;;;;;;;5.43;3.83;;;20.30;61.20;;;;;;5013553;28;20234;-72
2022/05/07 09:31:36;;;;;;;4.20;3.72;;;20.30;60.80;;;;;;5031421;28;20235;-71
2022/05/07 09:37:12;;;;;;;5.43;3.53;;;20.30;60.80;;;;;;5015972;28;20172;-72
2022/05/07 09:39:38;;;;;;;5.15;3.78;;;20.30;60.80;;;;;;5014878;28;20200;-72
2022/05/07 09:42:07;;;;;;;5.03;3.88;;;20.30;60.60;;;;;;5014535;28;20229;-73
2022/05/07 09:44:33;;;;;;;6.20;4.10;;;20.30;60.50;;;;;;5015847;28;20242;-72
2022/05/07 09:46:59;;;;;;;5.78;3.60;;;20.30;60.50;;;;;;5014735;28;20543;-72
2022/05/07 09:49:28;;;;;;;5.50;3.67;;;20.30;60.50;;;;;;5014680;28;20207;-72
2022/05/07 09:51:57;;;;;;;4.45;4.05;;;20.30;61.10;;;;;;5013347;28;20204;-72
2022/05/07 10:00:00;;;;;;;4.75;3.50;;;20.30;60.70;;;;;;5031340;28;20191;-71
2022/05/07 10:02:48;;;;;;;5.15;3.83;;;20.30;60.70;;;;;;5014174;28;20222;-71
2022/05/07 10:05:34;;;;;;;4.68;3.60;;;20.30;60.30;;;;;;5014437;28;20177;-72
2022/05/07 10:08:21;;;;;;;5.57;3.63;;;20.30;60.50;;;;;;5015515;28;20178;-72
2022/05/07 10:10:52;;;;;;;5.82;3.95;;;20.30;60.40;;;;;;5015722;28;20191;-72
2022/05/07 10:13:19;;;;;;;4.32;3.65;;;20.30;60.50;;;;;;5014169;28;20215;-71
2022/05/07 10:15:46;;;;;;;4.00;3.60;;;20.20;60.60;;;;;;5014346;28;20194;-71
2022/05/07 10:18:16;;;;;;;5.15;3.75;;;20.20;60.40;;;;;;4998068;28;20180;-72
2022/05/07 10:20:48;;;;;;;3.83;3.53;;;20.20;60.50;;;;;;5013991;28;20207;-72
2022/05/07 10:23:28;;;;;;;4.63;4.00;;;20.30;60.30;;;;;;5016365;28;20720;-72
2022/05/07 10:25:58;;;;;;;4.28;3.88;;;20.20;60.40;;;;;;5019850;28;20180;-72
2022/05/07 10:28:38;;;;;;;5.20;4.10;;;20.30;60.40;;;;;;5015150;28;20191;-72
2022/05/07 10:31:17;;;;;;;4.20;3.78;;;20.30;60.40;;;;;;5026265;28;20184;-72
2022/05/07 10:33:43;;;;;;;4.72;3.70;;;20.30;60.20;;;;;;5026795;28;20225;-72
2022/05/07 10:36:10;;;;;;;3.72;3.33;;;20.30;60.70;;;;;;5034310;28;20294;-72
2022/05/07 10:38:39;;;;;;;4.18;3.47;;;20.30;61.10;;;;;;5028849;28;20185;-72
2022/05/07 10:41:20;;;;;;;4.88;3.40;;;20.30;60.70;;;;;;5030197;28;20206;-72
2022/05/07 10:43:56;;;;;;;5.10;3.92;;;20.30;61.20;;;;;;5028522;28;20219;-72
2022/05/07 10:46:23;;;;;;;4.32;3.92;;;20.30;61.00;;;;;;5033519;28;20179;-72
2022/05/07 10:48:56;;;;;;;4.60;4.20;;;20.30;60.50;;;;;;5049858;28;20202;-72
2022/05/07 10:51:34;;;;;;;6.03;4.03;;;20.30;60.50;;;;;;5049662;28;20171;-71
2022/05/07 10:54:18;;;;;;;7.07;4.03;;;20.30;60.50;;;;;;5030561;28;20223;-72
2022/05/07 10:56:55;;;;;;;5.25;4.57;;;20.30;60.30;;;;;;5029852;28;20710;-72
2022/05/07 10:59:23;;;;;;;8.93;6.50;;;20.30;60.30;;;;;;5013312;28;20190;-72
2022/05/07 11:01:50;;;;;;;5.43;4.63;;;20.30;60.40;;;;;;5029818;28;20573;-71
2022/05/07 11:04:22;;;;;;;8.13;7.32;;;20.30;60.50;;;;;;5029890;28;20203;-71
2022/05/07 11:06:52;;;;;;;9.73;8.25;;;20.30;60.40;;;;;;5015049;28;20192;-72
2022/05/07 11:09:24;;;;;;;7.95;6.85;;;20.30;60.40;;;;;;5013268;28;20242;-71
2022/05/07 11:11:54;;;;;;;9.07;8.15;;;20.30;60.30;;;;;;5012908;28;20177;-71
2022/05/07 11:14:24;;;;;;;8.52;7.68;;;20.30;60.30;;;;;;5012963;28;20302;-71
2022/05/07 11:16:55;;;;;;;12.10;9.27;;;20.30;60.40;;;;;;5012962;28;20187;-72
2022/05/07 11:19:30;;;;;;;10.82;9.70;;;20.30;60.00;;;;;;5029426;28;20192;-72
2022/05/07 11:21:59;;;;;;;13.60;11.25;;;20.30;60.10;;;;;;5012700;28;20259;-71
2022/05/07 11:24:27;;;;;;;12.40;10.10;;;20.30;60.40;;;;;;5012924;28;20220;-71
2022/05/07 11:26:59;;;;;;;11.10;9.77;;;20.30;60.50;;;;;;5013039;28;20275;-71
2022/05/07 11:29:26;;;;;;;13.68;11.88;;;20.30;60.50;;;;;;5012733;28;20180;-71
2022/05/07 11:32:01;;;;;;;13.07;11.65;;;20.30;60.50;;;;;;5028915;28;20191;-71
2022/05/07 11:34:39;;;;;;;17.88;13.68;;;20.30;60.40;;;;;;5012813;28;20242;-72
2022/05/07 11:37:12;;;;;;;12.23;10.93;;;20.40;60.80;;;;;;4996482;28;20184;-71
2022/05/07 11:39:58;;;;;;;15.63;11.93;;;20.30;60.40;;;;;;5013802;28;20682;-72
2022/05/07 11:42:33;;;;;;;13.90;12.40;;;20.40;60.50;;;;;;5012259;28;20219;-72
2022/05/07 11:48:06;;;;;;;13.25;11.85;;;20.40;60.40;;;;;;5028794;28;20250;-72
2022/05/07 11:50:51;;;;;;;13.07;11.68;;;20.40;60.50;;;;;;5012389;28;20242;-71
2022/05/07 11:53:20;;;;;;;13.77;12.35;;;20.40;60.50;;;;;;5028456;28;20223;-72
2022/05/07 11:55:48;;;;;;;13.50;11.93;;;20.40;60.40;;;;;;5012257;28;20188;-71
2022/05/07 11:58:23;;;;;;;13.90;11.90;;;20.40;60.30;;;;;;4995847;28;20199;-72
2022/05/07 12:00:52;;;;;;;12.88;11.57;;;20.40;60.30;;;;;;5012205;28;20186;-72
2022/05/07 12:03:19;;;;;;;12.88;11.43;;;20.40;60.30;;;;;;5012979;28;20283;-71
2022/05/07 12:05:51;;;;;;;13.85;11.30;;;20.40;60.50;;;;;;5012368;28;20184;-72
2022/05/07 12:08:19;;;;;;;13.70;11.98;;;20.40;60.40;;;;;;5013228;28;20188;-72
2022/05/07 12:10:51;;;;;;;14.13;12.13;;;20.40;60.30;;;;;;5011953;28;20230;-71
2022/05/07 12:13:22;;;;;;;13.05;11.32;;;20.40;60.30;;;;;;5011617;28;20314;-71
2022/05/07 12:18:34;;;;;;;12.93;11.23;;;20.40;60.20;;;;;;5028247;28;20219;-72
2022/05/07 12:21:01;;;;;;;12.75;11.35;;;20.40;60.10;;;;;;4995484;28;20180;-72
2022/05/07 12:31:53;;;;;;;12.70;11.38;;;20.40;60.20;;;;;;4993111;28;20165;-71
2022/05/07 12:34:21;;;;;;;12.82;10.95;;;20.40;60.10;;;;;;4991913;28;20228;-71
2022/05/07 12:36:47;;;;;;;14.02;11.20;;;20.40;59.90;;;;;;4993212;28;20193;-71
2022/05/07 12:39:13;;;;;;;13.80;11.23;;;20.40;60.00;;;;;;4991839;28;20195;-72
2022/05/07 12:41:43;;;;;;;13.18;11.20;;;20.40;59.90;;;;;;4992001;28;20201;-71
2022/05/07 12:44:11;;;;;;;13.32;11.60;;;20.40;59.80;;;;;;5008011;28;20228;-71
2022/05/07 12:46:36;;;;;;;11.48;10.27;;;20.40;60.50;;;;;;4976012;28;20256;-72
2022/05/07 12:49:02;;;;;;;11.68;10.52;;;20.40;59.70;;;;;;5008333;28;20193;-72
2022/05/07 12:51:28;;;;;;;12.95;10.82;;;20.40;59.70;;;;;;5008328;28;20746;-70
2022/05/07 12:53:54;;;;;;;12.10;10.52;;;20.40;59.80;;;;;;5001948;28;20714;-72
2022/05/07 12:56:24;;;;;;;13.15;10.25;;;20.40;59.80;;;;;;5012571;28;20241;-71
2022/05/07 12:58:50;;;;;;;12.10;10.80;;;20.40;59.90;;;;;;5011410;28;20571;-72
2022/05/07 13:01:16;;;;;;;12.60;10.45;;;20.40;60.80;;;;;;5011644;28;20176;-71
2022/05/07 13:03:43;;;;;;;14.48;10.30;;;20.40;59.90;;;;;;5013088;28;20262;-71
2022/05/07 13:06:09;;;;;;;11.80;10.57;;;20.40;59.90;;;;;;5015406;28;20198;-71
2022/05/07 13:08:35;;;;;;;11.75;9.90;;;20.40;59.80;;;;;;5015419;28;20176;-72
2022/05/07 13:11:01;;;;;;;11.15;9.45;;;20.40;59.80;;;;;;5015527;28;20742;-71
2022/05/07 13:13:27;;;;;;;10.73;9.70;;;20.40;59.80;;;;;;4998533;28;20225;-71
2022/05/07 13:15:52;;;;;;;11.07;9.93;;;20.40;59.80;;;;;;5031703;28;20184;-71
2022/05/07 13:18:20;;;;;;;12.10;9.55;;;20.40;59.80;;;;;;5015067;28;20529;-71
2022/05/07 13:20:46;;;;;;;10.52;9.52;;;20.40;59.60;;;;;;5015313;28;20238;-71
2022/05/07 13:23:12;;;;;;;10.35;9.38;;;20.40;59.50;;;;;;5014722;28;20212;-72
2022/05/07 13:25:39;;;;;;;15.30;9.13;;;20.40;59.80;;;;;;5014959;28;20198;-72
2022/05/07 13:28:05;;;;;;;9.85;8.85;;;20.40;59.70;;;;;;5014901;28;20697;-72
2022/05/07 13:30:33;;;;;;;11.40;9.27;;;20.40;59.70;;;;;;5031285;28;20226;-72
2022/05/07 13:32:59;;;;;;;11.25;8.80;;;20.40;59.70;;;;;;5014539;28;20208;-72
2022/05/07 13:35:26;;;;;;;12.70;9.55;;;20.40;59.90;;;;;;5014841;28;20759;-72
2022/05/07 13:37:51;;;;;;;11.68;9.38;;;20.40;59.60;;;;;;5031191;28;20564;-72